createdAt,value
2018-02-22T00:01:11.400Z,25.13
2018-02-22T00:03:40.235Z,28.43
2018-02-22T00:06:08.688Z,23.73
2018-02-22T00:08:37.314Z,23.03
2018-02-22T00:11:05.780Z,27.20
2018-02-22T00:13:34.219Z,21.20
2018-02-22T00:16:03.176Z,24.67
2018-02-22T00:18:31.623Z,23.90
2018-02-22T00:21:00.080Z,26.23
2018-02-22T00:23:28.903Z,26.80
2018-02-22T00:25:57.339Z,25.40
2018-02-22T00:28:26.273Z,23.67
2018-02-22T00:30:55.614Z,26.27
2018-02-22T00:33:24.569Z,31.60
2018-02-22T00:35:53.007Z,33.03
2018-02-22T00:38:21.855Z,30.67
2018-02-22T00:40:50.328Z,26.30
2018-02-22T00:43:18.765Z,28.40
2018-02-22T00:45:47.612Z,28.37
2018-02-22T00:48:16.069Z,25.17
2018-02-22T00:50:44.641Z,25.43
2018-02-22T00:53:13.072Z,27.27
2018-02-22T00:55:41.616Z,28.73
2018-02-22T00:58:10.099Z,23.97
2018-02-22T01:00:38.541Z,28.87
2018-02-22T01:03:07.421Z,24.07
2018-02-22T01:05:35.892Z,28.43
2018-02-22T01:08:04.426Z,22.20
2018-02-22T01:10:32.860Z,29.73
2018-02-22T01:13:01.812Z,26.27
2018-02-22T01:15:30.244Z,25.97
2018-02-22T01:17:59.283Z,20.33
2018-02-22T01:20:27.736Z,27.60
2018-02-22T01:22:56.189Z,21.10
2018-02-22T01:25:25.264Z,24.83
2018-02-22T01:27:53.824Z,21.20
2018-02-22T01:30:22.348Z,27.57
2018-02-22T01:32:50.779Z,23.13
2018-02-22T01:35:19.236Z,24.93
2018-02-22T01:37:47.671Z,26.57
2018-02-22T01:40:16.119Z,25.23
2018-02-22T01:42:44.621Z,21.50
2018-02-22T01:45:13.084Z,23.20
2018-02-22T01:47:41.529Z,22.70
2018-02-22T01:50:10.380Z,21.23
2018-02-22T01:52:38.823Z,24.57
2018-02-22T01:55:07.444Z,28.20
2018-02-22T01:57:36.000Z,25.50
2018-02-22T02:00:04.444Z,27.77
2018-02-22T02:02:33.376Z,26.43
2018-02-22T02:05:01.877Z,29.00
2018-02-22T02:07:30.340Z,23.23
2018-02-22T02:09:58.808Z,23.47
2018-02-22T02:12:27.256Z,27.97
2018-02-22T02:14:56.120Z,29.90
2018-02-22T02:17:24.665Z,23.97
2018-02-22T02:19:53.872Z,28.03
2018-02-22T02:22:22.339Z,27.10
2018-02-22T02:24:50.774Z,34.30
2018-02-22T02:27:19.616Z,24.93
2018-02-22T02:29:48.076Z,37.83
2018-02-22T02:32:16.512Z,23.87
2018-02-22T02:34:45.009Z,21.67
2018-02-22T02:37:13.875Z,28.77
2018-02-22T02:39:42.311Z,25.30
2018-02-22T02:42:10.828Z,28.67
2018-02-22T02:44:39.388Z,24.80
2018-02-22T02:47:07.829Z,31.27
2018-02-22T02:49:36.677Z,26.17
2018-02-22T02:52:05.156Z,24.53
2018-02-22T02:54:33.620Z,24.13
2018-02-22T02:57:02.077Z,27.10
2018-02-22T02:59:30.917Z,26.03
2018-02-22T03:01:59.384Z,29.43
2018-02-22T03:04:27.820Z,30.87
2018-02-22T03:06:56.690Z,26.53
2018-02-22T03:09:25.135Z,25.53
2018-02-22T03:11:53.608Z,25.33
2018-02-22T03:14:22.068Z,28.87
2018-02-22T03:16:50.573Z,24.23
2018-02-22T03:19:19.036Z,25.63
2018-02-22T03:21:47.529Z,29.37
2018-02-22T03:24:15.970Z,30.73
2018-02-22T03:26:44.816Z,28.67
2018-02-22T03:29:13.292Z,29.80
2018-02-22T03:31:41.748Z,28.63
2018-02-22T03:34:10.180Z,25.37
2018-02-22T03:36:38.641Z,27.80
2018-02-22T03:39:07.081Z,31.13
2018-02-22T03:41:35.582Z,26.53
2018-02-22T03:44:04.035Z,27.83
2018-02-22T03:46:32.875Z,27.50
2018-02-22T03:49:01.344Z,26.40
2018-02-22T03:51:29.825Z,27.57
2018-02-22T03:53:58.400Z,27.83
2018-02-22T03:56:26.833Z,28.20
2018-02-22T03:58:55.269Z,26.67
2018-02-22T04:01:23.731Z,31.43
2018-02-22T04:03:52.175Z,29.60
2018-02-22T04:06:20.621Z,31.37
2018-02-22T04:08:49.066Z,29.90
2018-02-22T04:11:17.573Z,29.60
2018-02-22T04:13:46.007Z,29.20
2018-02-22T04:16:14.857Z,25.70
2018-02-22T04:18:56.256Z,32.40
2018-02-22T04:21:24.708Z,34.47
2018-02-22T04:23:53.155Z,44.00
2018-02-22T04:26:21.990Z,33.07
2018-02-22T04:28:50.457Z,36.17
2018-02-22T04:31:18.935Z,33.47
2018-02-22T04:33:47.424Z,29.40
2018-02-22T04:36:15.880Z,36.73
2018-02-22T04:38:44.361Z,34.30
2018-02-22T04:41:12.817Z,37.20
2018-02-22T04:43:41.652Z,35.07
2018-02-22T04:46:10.105Z,37.27
2018-02-22T04:48:38.543Z,39.53
2018-02-22T04:51:07.092Z,29.43
2018-02-22T04:53:36.297Z,33.53
2018-02-22T04:56:04.751Z,39.27
2018-02-22T04:58:33.184Z,35.67
2018-02-22T05:01:01.632Z,35.60
2018-02-22T05:03:30.080Z,33.50
2018-02-22T05:05:58.924Z,38.10
2018-02-22T05:08:27.382Z,34.30
2018-02-22T05:10:55.864Z,38.67
2018-02-22T05:13:24.300Z,37.67
2018-02-22T05:15:53.137Z,42.83
2018-02-22T05:18:21.578Z,43.63
2018-02-22T05:20:50.431Z,41.50
2018-02-22T05:23:18.900Z,38.70
2018-02-22T05:25:47.367Z,40.53
2018-02-22T05:28:15.844Z,45.37
2018-02-22T05:30:44.345Z,37.50
2018-02-22T05:33:12.791Z,39.73
2018-02-22T05:35:41.247Z,45.80
2018-02-22T05:38:10.088Z,39.73
2018-02-22T05:40:38.563Z,40.20
2018-02-22T05:43:07.007Z,52.07
2018-02-22T05:45:35.947Z,40.83
2018-02-22T05:48:04.426Z,44.90
2018-02-22T05:50:32.896Z,38.50
2018-02-22T05:53:01.378Z,45.13
2018-02-22T05:55:29.863Z,39.20
2018-02-22T05:57:58.305Z,43.13
2018-02-22T06:00:27.176Z,46.67
2018-02-22T06:02:55.630Z,47.30
2018-02-22T06:05:24.081Z,43.43
2018-02-22T06:07:52.529Z,53.30
2018-02-22T06:10:21.371Z,45.97
2018-02-22T06:12:49.947Z,47.73
2018-02-22T06:15:18.436Z,45.53
2018-02-22T06:17:47.013Z,44.10
2018-02-22T06:20:15.459Z,46.73
2018-02-22T06:22:43.904Z,46.10
2018-02-22T06:25:12.364Z,51.60
2018-02-22T06:27:40.796Z,52.40
2018-02-22T06:30:09.632Z,48.70
2018-02-22T06:32:38.072Z,50.87
2018-02-22T06:35:06.691Z,47.33
2018-02-22T06:37:35.144Z,41.63
2018-02-22T06:40:03.592Z,46.83
2018-02-22T06:42:32.163Z,42.43
2018-02-22T06:45:00.846Z,40.30
2018-02-22T06:47:29.398Z,39.80
2018-02-22T06:49:57.876Z,37.30
2018-02-22T06:52:26.376Z,38.73
2018-02-22T06:54:54.824Z,39.07
2018-02-22T06:57:23.325Z,37.70
2018-02-22T06:59:51.760Z,37.60
2018-02-22T07:02:20.592Z,37.60
2018-02-22T07:04:49.024Z,39.67
2018-02-22T07:07:17.546Z,38.13
2018-02-22T07:09:45.996Z,50.13
2018-02-22T07:12:14.877Z,39.57
2018-02-22T07:14:42.608Z,39.00
2018-02-22T07:17:10.420Z,38.23
2018-02-22T07:19:38.536Z,38.83
2018-02-22T07:22:06.267Z,44.87
2018-02-22T07:24:33.992Z,58.60
2018-02-22T07:27:01.765Z,48.00
2018-02-22T07:29:29.498Z,45.47
2018-02-22T07:31:57.230Z,45.17
2018-02-22T07:34:25.021Z,47.40
2018-02-22T07:36:52.824Z,45.23
2018-02-22T07:39:20.589Z,43.27
2018-02-22T07:41:48.323Z,39.87
2018-02-22T07:44:16.055Z,50.00
2018-02-22T07:46:43.818Z,36.50
2018-02-22T07:49:11.553Z,42.50
2018-02-22T07:51:39.703Z,37.30
2018-02-22T07:54:07.468Z,41.43
2018-02-22T07:56:35.209Z,41.17
2018-02-22T07:59:02.964Z,38.90
2018-02-22T08:01:30.767Z,38.80
2018-02-22T08:03:58.497Z,40.37
2018-02-22T08:06:26.238Z,42.97
2018-02-22T08:08:53.959Z,39.90
2018-02-22T08:11:21.718Z,61.00
2018-02-22T08:13:49.496Z,45.37
2018-02-22T08:16:17.244Z,45.03
2018-02-22T08:18:45.013Z,43.13
2018-02-22T08:21:12.752Z,43.27
2018-02-22T08:23:41.260Z,47.87
2018-02-22T08:26:09.022Z,44.77
2018-02-22T08:28:36.795Z,43.60
2018-02-22T08:31:04.615Z,46.40
2018-02-22T08:33:32.478Z,41.00
2018-02-22T08:36:00.300Z,44.97
2018-02-22T08:38:28.034Z,45.60
2018-02-22T08:40:55.780Z,40.20
2018-02-22T08:43:23.780Z,37.17
2018-02-22T08:45:51.457Z,47.67
2018-02-22T08:48:19.117Z,38.33
2018-02-22T08:50:46.807Z,54.93
2018-02-22T08:53:14.879Z,41.10
2018-02-22T08:55:42.932Z,34.03
2018-02-22T08:58:10.576Z,43.87
2018-02-22T09:00:38.270Z,40.13
2018-02-22T09:03:06.315Z,36.57
2018-02-22T09:05:33.971Z,37.10
2018-02-22T09:08:01.671Z,32.17
2018-02-22T09:10:29.756Z,33.50
2018-02-22T09:12:57.399Z,34.30
2018-02-22T09:15:25.511Z,42.70
2018-02-22T09:17:53.241Z,38.73
2018-02-22T09:20:21.304Z,27.57
2018-02-22T09:22:49.360Z,29.10
2018-02-22T09:25:17.036Z,34.00
2018-02-22T09:27:45.071Z,31.67
2018-02-22T09:30:12.740Z,34.17
2018-02-22T09:32:40.385Z,26.43
2018-02-22T09:35:08.100Z,25.93
2018-02-22T09:37:36.193Z,28.60
2018-02-22T09:40:03.841Z,32.03
2018-02-22T09:42:31.906Z,32.03
2018-02-22T09:44:59.982Z,35.60
2018-02-22T09:47:28.058Z,22.33
2018-02-22T09:49:56.099Z,37.03
2018-02-22T09:52:23.748Z,25.50
2018-02-22T09:54:51.401Z,29.43
2018-02-22T09:57:19.105Z,31.63
2018-02-22T09:59:47.182Z,26.00
2018-02-22T10:02:15.242Z,24.50
2018-02-22T10:04:42.889Z,16.90
2018-02-22T10:07:10.551Z,22.97
2018-02-22T10:09:38.194Z,22.50
2018-02-22T10:12:05.844Z,33.30
2018-02-22T10:14:33.491Z,23.60
2018-02-22T10:17:01.140Z,21.20
2018-02-22T10:19:28.819Z,18.67
2018-02-22T10:21:56.492Z,16.67
2018-02-22T10:24:24.142Z,19.67
2018-02-22T10:26:51.803Z,19.43
2018-02-22T10:29:19.451Z,17.00
2018-02-22T10:31:47.108Z,17.47
2018-02-22T10:34:14.767Z,13.80
2018-02-22T10:36:42.456Z,17.97
2018-02-22T10:39:10.119Z,17.37
2018-02-22T10:41:37.783Z,16.00
2018-02-22T10:44:05.431Z,21.57
2018-02-22T10:46:33.094Z,20.07
2018-02-22T10:49:00.760Z,15.27
2018-02-22T10:51:28.420Z,16.07
2018-02-22T10:53:56.082Z,22.10
2018-02-22T10:56:23.812Z,15.77
2018-02-22T10:58:51.855Z,28.67
2018-02-22T11:01:25.218Z,33.97
2018-02-22T11:03:52.873Z,16.47
2018-02-22T11:06:20.540Z,17.73
2018-02-22T11:08:48.187Z,11.20
2018-02-22T11:11:15.861Z,15.07
2018-02-22T11:13:43.516Z,13.23
2018-02-22T11:16:11.184Z,15.47
2018-02-22T11:18:38.830Z,11.40
2018-02-22T11:21:06.902Z,21.57
2018-02-22T11:26:08.683Z,14.43
2018-02-22T11:28:36.318Z,18.13
2018-02-22T11:31:04.371Z,14.43
2018-02-22T11:33:32.030Z,16.23
2018-02-22T11:35:59.690Z,15.83
2018-02-22T11:38:27.344Z,15.13
2018-02-22T11:40:54.992Z,24.73
2018-02-22T11:43:22.645Z,12.37
2018-02-22T11:45:50.311Z,16.57
2018-02-22T11:48:17.954Z,18.77
2018-02-22T11:50:45.659Z,16.27
2018-02-22T11:53:13.359Z,11.10
2018-02-22T11:55:41.455Z,14.57
2018-02-22T11:58:09.111Z,15.87
2018-02-22T12:00:36.771Z,18.70
2018-02-22T12:03:04.420Z,23.20
2018-02-22T12:05:32.512Z,18.80
2018-02-22T12:08:00.520Z,14.53
2018-02-22T12:10:28.180Z,17.53
2018-02-22T12:12:55.805Z,17.53
2018-02-22T12:15:23.470Z,26.40
2018-02-22T12:17:51.124Z,23.43
2018-02-22T12:20:18.792Z,15.90
2018-02-22T12:22:46.451Z,16.57
2018-02-22T12:25:14.187Z,20.80
2018-02-22T12:27:42.260Z,19.87
2018-02-22T12:30:10.313Z,11.63
2018-02-22T12:32:38.527Z,11.53
2018-02-22T12:35:06.171Z,18.30
2018-02-22T12:37:34.218Z,15.10
2018-02-22T12:40:01.860Z,20.50
2018-02-22T12:42:29.525Z,17.00
2018-02-22T12:44:57.184Z,26.03
2018-02-22T12:47:24.826Z,19.40
2018-02-22T12:49:52.468Z,16.33
2018-02-22T12:52:20.116Z,24.57
2018-02-22T12:54:48.185Z,23.60
2018-02-22T12:59:49.240Z,18.83
2018-02-22T13:02:17.283Z,13.37
2018-02-22T13:04:45.010Z,19.53
2018-02-22T13:07:12.664Z,23.50
2018-02-22T13:09:40.300Z,20.50
2018-02-22T13:12:08.487Z,21.10
2018-02-22T13:14:36.136Z,18.90
2018-02-22T13:17:04.186Z,15.40
2018-02-22T13:19:31.836Z,25.30
2018-02-22T13:21:59.487Z,16.27
2018-02-22T13:24:27.209Z,18.77
2018-02-22T13:26:54.871Z,17.27
2018-02-22T13:29:22.514Z,20.87
2018-02-22T13:31:50.568Z,19.90
2018-02-22T13:34:29.923Z,17.70
2018-02-22T13:36:57.965Z,15.80
2018-02-22T13:39:25.607Z,18.90
2018-02-22T13:41:53.282Z,15.27
2018-02-22T13:44:32.721Z,17.53
2018-02-22T13:47:00.371Z,23.00
2018-02-22T13:49:39.684Z,10.70
2018-02-22T13:52:07.335Z,16.03
2018-02-22T13:54:34.978Z,15.40
2018-02-22T13:57:08.511Z,12.53
2018-02-22T13:59:36.254Z,17.10
2018-02-22T14:02:15.765Z,13.83
2018-02-22T14:04:43.410Z,12.63
2018-02-22T14:07:11.073Z,16.53
2018-02-22T14:09:38.726Z,25.33
2018-02-22T14:12:06.376Z,13.70
2018-02-22T14:14:34.016Z,9.67
2018-02-22T14:17:01.681Z,13.70
2018-02-22T14:19:29.320Z,5.17
2018-02-22T14:21:57.366Z,9.50
2018-02-22T14:24:25.011Z,42.30
2018-02-22T14:26:52.975Z,9.90
2018-02-22T14:29:20.607Z,12.90
2018-02-22T14:31:48.348Z,13.93
2018-02-22T14:34:16.380Z,11.43
2018-02-22T14:36:44.045Z,23.80
2018-02-22T14:39:11.680Z,12.77
2018-02-22T14:41:39.340Z,11.17
2018-02-22T14:44:06.991Z,19.13
2018-02-22T14:46:34.651Z,13.03
2018-02-22T14:49:02.303Z,16.77
2018-02-22T14:51:29.977Z,14.77
2018-02-22T14:53:57.627Z,12.33
2018-02-22T14:56:26.046Z,11.47
2018-02-22T14:58:53.691Z,25.27
2018-02-22T15:01:21.365Z,13.03
2018-02-22T15:03:49.018Z,16.93
2018-02-22T15:06:16.755Z,14.53
2018-02-22T15:08:44.401Z,14.37
2018-02-22T15:11:12.445Z,20.13
2018-02-22T15:13:40.090Z,16.77
2018-02-22T15:16:07.739Z,14.93
2018-02-22T15:18:35.394Z,10.27
2018-02-22T15:21:03.044Z,14.00
2018-02-22T15:23:30.692Z,13.20
2018-02-22T15:25:58.351Z,11.57
2018-02-22T15:28:25.985Z,10.07
2018-02-22T15:30:53.639Z,12.07
2018-02-22T15:33:21.318Z,11.30
2018-02-22T15:35:49.374Z,17.80
2018-02-22T15:38:17.034Z,10.00
2018-02-22T15:40:44.699Z,10.17
2018-02-22T15:43:12.372Z,10.80
2018-02-22T15:45:40.068Z,13.60
2018-02-22T15:48:07.704Z,13.17
2018-02-22T15:50:35.359Z,15.10
2018-02-22T15:53:03.448Z,27.90
2018-02-22T15:55:31.510Z,16.93
2018-02-22T15:57:59.154Z,16.50
2018-02-22T16:00:26.808Z,19.07
2018-02-22T16:02:54.459Z,23.70
2018-02-22T16:05:22.130Z,13.33
2018-02-22T16:07:49.794Z,18.83
2018-02-22T16:10:17.480Z,14.00
2018-02-22T16:12:45.525Z,12.63
2018-02-22T16:15:13.177Z,13.77
2018-02-22T16:17:40.847Z,12.93
2018-02-22T16:20:08.491Z,22.50
2018-02-22T16:22:36.154Z,22.60
2018-02-22T16:25:03.806Z,15.30
2018-02-22T16:27:31.467Z,16.80
2018-02-22T16:29:59.107Z,17.33
2018-02-22T16:32:26.857Z,14.53
2018-02-22T16:34:54.898Z,14.00
2018-02-22T16:37:22.602Z,11.63
2018-02-22T16:39:50.252Z,21.83
2018-02-22T16:42:17.907Z,13.20
2018-02-22T16:44:45.951Z,14.43
2018-02-22T16:47:13.617Z,12.80
2018-02-22T16:49:41.252Z,14.63
2018-02-22T16:52:08.908Z,13.90
2018-02-22T16:54:36.558Z,19.53
2018-02-22T16:57:04.231Z,14.93
2018-02-22T16:59:31.965Z,18.70
2018-02-22T17:01:59.635Z,22.13
2018-02-22T17:04:27.389Z,18.17
2018-02-22T17:06:55.429Z,25.83
2018-02-22T17:09:23.101Z,12.63
2018-02-22T17:11:50.781Z,15.40
2018-02-22T17:14:18.843Z,22.77
2018-02-22T17:16:46.953Z,18.93
2018-02-22T17:19:14.617Z,16.57
2018-02-22T17:21:42.297Z,22.43
2018-02-22T17:24:10.009Z,23.77
2018-02-22T17:26:43.704Z,14.87
2018-02-22T17:29:17.451Z,15.07
2018-02-22T17:31:50.904Z,18.33
2018-02-22T17:34:18.943Z,16.73
2018-02-22T17:36:46.595Z,19.33
2018-02-22T17:39:18.166Z,23.97
2018-02-22T17:41:45.830Z,21.93
2018-02-22T17:44:13.482Z,24.03
2018-02-22T17:46:41.152Z,18.30
2018-02-22T17:49:08.814Z,13.03
2018-02-22T17:51:36.472Z,21.77
2018-02-22T17:54:04.129Z,15.57
2018-02-22T17:56:31.797Z,18.60
2018-02-22T17:58:59.453Z,15.50
2018-02-22T18:01:27.118Z,25.23
2018-02-22T18:03:54.766Z,19.43
2018-02-22T18:06:22.419Z,16.70
2018-02-22T18:08:50.071Z,18.97
2018-02-22T18:11:17.732Z,14.67
2018-02-22T18:13:45.378Z,19.27
2018-02-22T18:16:13.034Z,19.30
2018-02-22T18:18:40.700Z,16.67
2018-02-22T18:21:08.359Z,25.03
2018-02-22T18:23:36.436Z,19.30
2018-02-22T18:26:04.086Z,14.83
2018-02-22T18:28:32.128Z,14.60
2018-02-22T18:30:59.822Z,18.23
2018-02-22T18:33:27.876Z,19.20
2018-02-22T18:35:55.947Z,12.10
2018-02-22T18:38:23.992Z,16.50
2018-02-22T18:40:57.398Z,12.60
2018-02-22T18:43:30.680Z,12.30
2018-02-22T18:45:58.341Z,15.63
2018-02-22T18:48:26.002Z,16.17
2018-02-22T18:50:53.661Z,14.37
2018-02-22T18:53:21.375Z,9.80
2018-02-22T18:55:49.430Z,12.13
2018-02-22T18:58:17.469Z,12.87
2018-02-22T19:00:45.199Z,11.23
2018-02-22T19:03:12.847Z,14.20
2018-02-22T19:05:40.510Z,16.50
2018-02-22T19:08:08.187Z,12.90
2018-02-22T19:10:35.846Z,11.83
2018-02-22T19:13:03.617Z,16.03
2018-02-22T19:15:31.298Z,25.57
2018-02-22T19:17:59.041Z,12.60
2018-02-22T19:20:26.709Z,15.77
2018-02-22T19:22:54.452Z,11.97
2018-02-22T19:25:22.215Z,11.13
2018-02-22T19:27:49.876Z,11.77
2018-02-22T19:30:17.930Z,16.40
2018-02-22T19:32:45.971Z,10.53
2018-02-22T19:35:13.632Z,14.43
2018-02-22T19:37:41.290Z,19.53
2018-02-22T19:40:08.951Z,8.00
2018-02-22T19:42:36.795Z,10.90
2018-02-22T19:45:04.450Z,7.77
2018-02-22T19:47:32.105Z,11.13
2018-02-22T19:49:59.748Z,7.73
2018-02-22T19:52:27.820Z,10.03
2018-02-22T19:54:55.535Z,14.30
2018-02-22T19:57:23.199Z,9.23
2018-02-22T19:59:50.912Z,13.67
2018-02-22T20:02:18.995Z,9.00
2018-02-22T20:04:46.639Z,7.63
2018-02-22T20:07:14.295Z,10.07
2018-02-22T20:09:41.964Z,9.60
2018-02-22T20:12:10.040Z,11.50
2018-02-22T20:14:38.090Z,8.57
2018-02-22T20:17:05.887Z,10.20
2018-02-22T20:19:33.529Z,12.03
2018-02-22T20:22:01.588Z,17.10
2018-02-22T20:24:29.661Z,20.97
2018-02-22T20:26:57.744Z,14.60
2018-02-22T20:29:25.816Z,15.47
2018-02-22T20:31:53.912Z,16.60
2018-02-22T20:34:21.584Z,15.13
2018-02-22T20:36:49.240Z,22.77
2018-02-22T20:39:16.891Z,20.77
2018-02-22T20:41:44.543Z,17.83
2018-02-22T20:44:12.593Z,16.27
2018-02-22T20:46:40.267Z,19.93
2018-02-22T20:49:08.318Z,17.73
2018-02-22T20:51:35.983Z,23.07
2018-02-22T20:54:03.651Z,23.47
2018-02-22T20:56:31.704Z,18.60
2018-02-22T20:58:59.359Z,12.53
2018-02-22T21:01:27.098Z,13.37
2018-02-22T21:03:54.749Z,15.17
2018-02-22T21:06:22.402Z,22.80
2018-02-22T21:08:50.064Z,12.23
2018-02-22T21:11:17.719Z,18.40
2018-02-22T21:13:45.764Z,13.80
2018-02-22T21:16:13.437Z,17.50
2018-02-22T21:18:41.485Z,14.37
2018-02-22T21:21:10.656Z,14.97
2018-02-22T21:23:38.322Z,15.43
2018-02-22T21:26:05.982Z,12.10
2018-02-22T21:28:33.642Z,15.70
2018-02-22T21:31:01.312Z,17.47
2018-02-22T21:33:28.979Z,16.60
2018-02-22T21:35:56.644Z,13.30
2018-02-22T21:38:24.294Z,15.90
2018-02-22T21:40:51.952Z,13.73
2018-02-22T21:43:19.700Z,22.70
2018-02-22T21:45:47.379Z,20.43
2018-02-22T21:48:15.051Z,18.33
2018-02-22T21:50:42.773Z,14.87
2018-02-22T21:53:10.415Z,21.27
2018-02-22T21:55:38.501Z,19.97
2018-02-22T21:58:06.565Z,22.83
2018-02-22T22:00:34.632Z,21.17
2018-02-22T22:03:02.670Z,19.80
2018-02-22T22:05:31.297Z,20.70
2018-02-22T22:07:59.354Z,18.10
2018-02-22T22:10:27.006Z,23.00
2018-02-22T22:12:54.677Z,24.67
2018-02-22T22:15:22.357Z,20.57
2018-02-22T22:17:50.041Z,22.20
2018-02-22T22:20:17.708Z,23.50
2018-02-22T22:22:45.403Z,25.40
2018-02-22T22:25:13.087Z,23.33
2018-02-22T22:27:40.773Z,23.73
2018-02-22T22:30:08.462Z,21.27
2018-02-22T22:32:36.125Z,18.47
2018-02-22T22:35:03.817Z,20.47
2018-02-22T22:37:31.488Z,16.23
2018-02-22T22:39:59.152Z,22.93
2018-02-22T22:42:26.846Z,19.27
2018-02-22T22:44:54.928Z,17.53
2018-02-22T22:47:22.605Z,18.73
2018-02-22T22:49:50.293Z,21.93
2018-02-22T22:52:17.973Z,22.70
2018-02-22T22:54:45.644Z,17.90
2018-02-22T22:57:13.337Z,18.30
2018-02-22T22:59:41.380Z,18.63
2018-02-22T23:02:09.059Z,14.43
2018-02-22T23:04:37.119Z,15.80
2018-02-22T23:07:04.799Z,21.60
2018-02-22T23:09:32.865Z,11.80
2018-02-22T23:12:00.525Z,19.30
2018-02-22T23:14:28.584Z,19.70
2018-02-22T23:16:56.639Z,14.73
2018-02-22T23:19:24.329Z,17.60
2018-02-22T23:21:51.973Z,14.13
2018-02-22T23:24:19.628Z,14.30
2018-02-22T23:26:47.284Z,13.40
2018-02-22T23:29:14.944Z,15.73
2018-02-22T23:31:42.600Z,16.93
2018-02-22T23:34:10.277Z,15.00
2018-02-22T23:36:37.968Z,19.90
2018-02-22T23:39:06.012Z,12.37
2018-02-22T23:41:39.400Z,17.27
2018-02-22T23:44:07.052Z,16.23
2018-02-22T23:46:34.716Z,19.40
2018-02-22T23:49:02.377Z,17.17
2018-02-22T23:51:30.080Z,14.40
2018-02-22T23:53:58.149Z,16.40
2018-02-22T23:56:26.213Z,14.33
2018-02-22T23:58:54.292Z,18.27
